Time;durP1;ratioP1;P1;durP2;ratioP2;P2;SDS_P1;SDS_P2;PMS_P1;PMS_P2;Temp;Humidity;BMP_temperature;BMP_pressure;BME280_temperature;BME280_humidity;BME280_pressure;Samples;Min_cycle;Max_cycle;Signal;HPM_P1;HPM_P2
2021/08/19 00:01:42;;;;;;;;;;;18.60;98.70;;;17.47;99.69;100282.31;5007849;28;20016;-79
2021/08/19 00:04:11;;;;;;;;;;;18.50;99.10;;;17.47;99.78;100285.06;5008853;28;19980;-80
2021/08/19 00:06:38;;;;;;;;;;;18.60;99.20;;;17.48;100.00;100289.50;5010664;28;19935;-80
2021/08/19 00:09:05;;;;;;;;;;;18.50;99.20;;;17.48;100.00;100278.50;5011356;28;19985;-79
2021/08/19 00:11:32;;;;;;;;;;;18.60;99.20;;;17.49;100.00;100280.16;5011268;28;19933;-80
2021/08/19 00:13:59;;;;;;;;;;;18.60;99.30;;;17.49;100.00;100282.09;5010880;28;20440;-80
2021/08/19 00:16:26;;;;;;;;;;;18.60;99.20;;;17.49;100.00;100276.59;5011035;28;20572;-80
2021/08/19 00:18:53;;;;;;;;;;;18.60;99.30;;;17.48;100.00;100277.69;5010444;28;20016;-80
2021/08/19 00:21:22;;;;;;;;;;;18.60;99.20;;;17.46;100.00;100286.16;5011069;28;20024;-80
2021/08/19 00:23:49;;;;;;;;;;;18.60;99.50;;;17.45;100.00;100281.72;5011106;28;19936;-80
2021/08/19 00:26:16;;;;;;;;;;;18.60;99.60;;;17.47;100.00;100279.56;4993092;28;19929;-80
2021/08/19 00:28:43;;;;;;;;;;;18.60;99.50;;;17.49;100.00;100282.09;5010837;28;20398;-80
2021/08/19 00:31:10;;;;;;;;;;;18.60;99.50;;;17.50;100.00;100270.84;5010502;28;20028;-80
2021/08/19 00:33:37;;;;;;;;;;;18.60;99.60;;;17.53;100.00;100269.53;4993284;28;19976;-80
2021/08/19 00:36:04;;;;;;;;;;;18.60;99.70;;;17.49;100.00;100269.16;5009932;28;19929;-80
2021/08/19 00:38:33;;;;;;;;;;;18.60;99.80;;;17.51;100.00;100263.44;4993146;28;20178;-80
2021/08/19 00:41:00;;;;;;;;;;;18.60;99.80;;;17.49;100.00;100266.41;5010076;28;20041;-80
2021/08/19 00:43:27;;;;;;;;;;;18.60;99.90;;;17.49;100.00;100273.84;5010646;28;19936;-80
2021/08/19 00:45:54;;;;;;;;;;;18.60;99.90;;;17.44;100.00;100266.31;5009927;28;19930;-79
2021/08/19 00:48:21;;;;;;;;;;;18.60;99.90;;;17.45;100.00;100270.72;4992903;28;20408;-80
2021/08/19 00:50:48;;;;;;;;;;;18.60;99.90;;;17.45;100.00;100270.72;5010054;28;19933;-80
2021/08/19 00:53:18;;;;;;;;;;;18.60;99.90;;;17.43;100.00;100270.13;5010650;28;19929;-80
2021/08/19 00:55:46;;;;;;;;;;;18.60;99.90;;;17.45;100.00;100269.88;5010086;28;20087;-80
2021/08/19 00:58:14;;;;;;;;;;;18.60;99.90;;;17.48;100.00;100262.00;5009555;28;20438;-79
2021/08/19 01:00:42;;;;;;;;;;;18.60;99.90;;;17.48;100.00;100261.16;5010500;28;20016;-80
2021/08/19 01:03:09;;;;;;;;;;;18.60;99.90;;;17.48;100.00;100264.75;5009893;28;19930;-80
2021/08/19 01:05:40;;;;;;;;;;;18.60;99.90;;;17.49;100.00;100258.16;5010542;28;19932;-80
2021/08/19 01:08:08;;;;;;;;;;;18.60;99.90;;;17.48;100.00;100259.25;5010180;28;20306;-80
2021/08/19 01:10:36;;;;;;;;;;;18.60;99.90;;;17.49;100.00;100265.59;5010079;28;19957;-80
2021/08/19 01:13:06;;;;;;;;;;;18.60;99.90;;;17.49;100.00;100268.34;5010534;28;19942;-80
2021/08/19 01:15:33;;;;;;;;;;;18.60;99.90;;;17.50;100.00;100261.78;5010129;28;19926;-79
2021/08/19 01:18:01;;;;;;;;;;;18.60;99.90;;;17.50;100.00;100267.28;5009662;28;19936;-80
2021/08/19 01:20:31;;;;;;;;;;;18.60;99.90;;;17.50;100.00;100270.84;5010262;28;20021;-80
2021/08/19 01:22:58;;;;;;;;;;;18.60;99.90;;;17.52;100.00;100262.38;5010258;28;19936;-80
2021/08/19 01:25:26;;;;;;;;;;;18.70;99.90;;;17.50;100.00;100259.03;5009858;28;20010;-80
2021/08/19 01:27:56;;;;;;;;;;;18.70;99.90;;;17.51;100.00;100266.19;5009289;28;19929;-80
2021/08/19 01:30:24;;;;;;;;;;;18.70;99.90;;;17.51;100.00;100267.00;5010271;28;20448;-80
2021/08/19 01:32:52;;;;;;;;;;;18.70;99.90;;;17.50;100.00;100265.34;5009726;28;20305;-80
2021/08/19 01:35:22;;;;;;;;;;;18.60;99.90;;;17.51;100.00;100266.19;4991600;28;19930;-80
2021/08/19 01:37:49;;;;;;;;;;;18.60;99.90;;;17.51;100.00;100261.50;5009074;28;19991;-79
2021/08/19 01:40:17;;;;;;;;;;;18.70;99.90;;;17.53;100.00;100272.28;5009341;28;19929;-80
2021/08/19 01:42:45;;;;;;;;;;;18.70;99.90;;;17.52;100.00;100257.69;5009908;28;19991;-80
2021/08/19 01:45:15;;;;;;;;;;;18.70;99.90;;;17.55;100.00;100268.25;5009873;28;20494;-79
2021/08/19 01:47:42;;;;;;;;;;;18.70;99.90;;;17.57;100.00;100265.22;5009475;28;20378;-79
2021/08/19 01:50:10;;;;;;;;;;;18.70;99.90;;;17.58;100.00;100262.25;4991950;28;19939;-80
2021/08/19 01:52:37;;;;;;;;;;;18.70;99.90;;;17.56;100.00;100258.91;5009722;28;19929;-79
2021/08/19 01:55:05;;;;;;;;;;;18.70;99.90;;;17.56;100.00;100255.31;5008923;28;20028;-79
2021/08/19 01:57:32;;;;;;;;;;;18.70;99.90;;;17.56;100.00;100252.56;5009122;28;20024;-79
2021/08/19 01:59:59;;;;;;;;;;;18.70;99.90;;;17.53;100.00;100255.78;5008154;28;19930;-79
2021/08/19 02:02:27;;;;;;;;;;;18.70;99.90;;;17.55;100.00;100251.72;5009215;28;19969;-79
2021/08/19 02:04:54;;;;;;;;;;;18.70;99.90;;;17.55;100.00;100256.38;5008531;28;20027;-80
2021/08/19 02:07:21;;;;;;;;;;;18.70;99.90;;;17.56;100.00;100256.16;5008907;28;20031;-80
2021/08/19 02:09:48;;;;;;;;;;;18.70;99.90;;;17.55;100.00;100262.75;5009128;28;20470;-79
2021/08/19 02:12:15;;;;;;;;;;;18.60;99.90;;;17.56;100.00;100258.06;5008532;28;19972;-79
2021/08/19 02:14:42;;;;;;;;;;;18.70;99.90;;;17.53;100.00;100255.78;5009124;28;20036;-80
2021/08/19 02:17:09;;;;;;;;;;;18.70;99.90;;;17.51;100.00;100255.19;5008774;28;19930;-79
2021/08/19 02:19:38;;;;;;;;;;;18.70;99.90;;;17.50;100.00;100259.84;5009048;28;19972;-79
2021/08/19 02:22:05;;;;;;;;;;;18.70;99.90;;;17.52;100.00;100257.69;5008512;28;19929;-79
2021/08/19 02:24:32;;;;;;;;;;;18.60;99.90;;;17.53;100.00;100253.03;4991125;28;19968;-79
2021/08/19 02:26:59;;;;;;;;;;;18.60;99.90;;;17.52;100.00;100257.69;5007029;28;20023;-79
2021/08/19 02:29:26;;;;;;;;;;;18.60;99.90;;;17.54;100.00;100261.03;5008817;28;20396;-79
2021/08/19 02:31:53;;;;;;;;;;;18.60;99.90;;;17.56;100.00;100252.56;5008651;28;19929;-80
2021/08/19 02:34:20;;;;;;;;;;;18.60;99.90;;;17.52;100.00;100252.19;5008328;28;20027;-79
2021/08/19 02:36:48;;;;;;;;;;;18.60;99.90;;;17.51;100.00;100250.50;5008542;28;20012;-79
2021/08/19 02:39:15;;;;;;;;;;;18.60;99.90;;;17.52;100.00;100246.69;5008191;28;20336;-79
2021/08/19 02:41:43;;;;;;;;;;;18.60;99.90;;;17.51;100.00;100245.00;5008580;28;20028;-79
2021/08/19 02:44:10;;;;;;;;;;;18.60;99.90;;;17.52;100.00;100249.44;4990787;28;20032;-79
2021/08/19 02:46:37;;;;;;;;;;;18.60;99.90;;;17.53;100.00;100248.34;5008428;28;19936;-80
2021/08/19 02:49:04;;;;;;;;;;;18.60;99.90;;;17.52;100.00;100245.84;5008551;28;19930;-80
2021/08/19 02:51:31;;;;;;;;;;;18.60;99.90;;;17.51;100.00;100242.25;5008713;28;20321;-79
2021/08/19 02:53:59;;;;;;;;;;;18.60;99.90;;;17.55;100.00;100240.72;5008509;28;19968;-79
2021/08/19 02:56:27;;;;;;;;;;;18.60;99.90;;;17.55;100.00;100237.97;5007935;28;19936;-79
2021/08/19 02:58:54;;;;;;;;;;;18.60;99.90;;;17.52;100.00;100237.59;5008269;28;20064;-79
2021/08/19 03:01:21;;;;;;;;;;;18.60;99.90;;;17.50;100.00;100232.34;5008456;28;19936;-80
2021/08/19 03:03:48;;;;;;;;;;;18.60;99.90;;;17.49;100.00;100236.16;5008475;28;20044;-80
2021/08/19 03:06:15;;;;;;;;;;;18.60;99.90;;;17.50;100.00;100235.09;5007812;28;20016;-79
2021/08/19 03:08:42;;;;;;;;;;;18.60;99.90;;;17.52;100.00;100234.84;5008419;28;19929;-80
2021/08/19 03:11:11;;;;;;;;;;;18.60;99.90;;;17.52;100.00;100237.59;5007799;28;19968;-79
2021/08/19 03:13:38;;;;;;;;;;;18.60;99.90;;;17.52;100.00;100235.69;5008394;28;19929;-79
2021/08/19 03:16:05;;;;;;;;;;;18.60;99.90;;;17.54;100.00;100230.78;5007365;28;20015;-80
2021/08/19 03:18:33;;;;;;;;;;;18.60;99.90;;;17.53;100.00;100231.84;5008105;28;19969;-80
2021/08/19 03:21:00;;;;;;;;;;;18.60;99.90;;;17.50;100.00;100224.09;4986244;28;19929;-80
2021/08/19 03:23:27;;;;;;;;;;;18.60;99.90;;;17.51;100.00;100234.00;5008611;28;20044;-80
2021/08/19 03:25:54;;;;;;;;;;;18.60;99.90;;;17.49;100.00;100227.88;4991115;28;19930;-80
2021/08/19 03:28:23;;;;;;;;;;;18.60;99.90;;;17.51;100.00;100233.16;5009496;28;19929;-80
2021/08/19 03:30:50;;;;;;;;;;;18.60;99.90;;;17.52;100.00;100234.84;5008671;28;19929;-79
2021/08/19 03:33:18;;;;;;;;;;;18.60;99.90;;;17.51;100.00;100231.25;5009217;28;19929;-80
2021/08/19 03:35:45;;;;;;;;;;;18.60;99.90;;;17.51;100.00;100228.50;4986819;28;20364;-80
2021/08/19 03:38:12;;;;;;;;;;;18.60;99.90;;;17.51;100.00;100234.00;5009229;28;19931;-79
2021/08/19 03:40:39;;;;;;;;;;;18.60;99.90;;;17.50;100.00;100232.34;5011053;28;19984;-79
2021/08/19 03:43:06;;;;;;;;;;;18.60;99.90;;;17.49;100.00;100224.31;5011760;28;19968;-79
2021/08/19 03:45:35;;;;;;;;;;;18.50;99.90;;;17.49;100.00;100233.41;5011695;28;19929;-79
2021/08/19 03:48:02;;;;;;;;;;;18.50;99.90;;;17.46;100.00;100239.41;5011090;28;19964;-79
2021/08/19 03:50:29;;;;;;;;;;;18.50;99.90;;;17.44;100.00;100233.28;5011563;28;19930;-79
2021/08/19 03:52:56;;;;;;;;;;;18.50;99.90;;;17.45;100.00;100234.94;5010978;28;19976;-79
2021/08/19 03:55:23;;;;;;;;;;;18.50;99.90;;;17.45;100.00;100232.19;5011474;28;19930;-79
2021/08/19 03:57:51;;;;;;;;;;;18.50;99.90;;;17.47;100.00;100237.47;5010544;28;19929;-79
2021/08/19 04:00:18;;;;;;;;;;;18.60;99.90;;;17.45;100.00;100237.69;5011457;28;19929;-80
2021/08/19 04:02:47;;;;;;;;;;;18.60;99.90;;;17.45;100.00;100229.44;5010740;28;20457;-79
2021/08/19 04:05:14;;;;;;;;;;;18.50;99.90;;;17.46;100.00;100242.13;5011341;28;19956;-79
2021/08/19 04:07:41;;;;;;;;;;;18.50;99.90;;;17.44;100.00;100238.78;5010507;28;19957;-80
2021/08/19 04:10:09;;;;;;;;;;;18.50;99.90;;;17.42;100.00;100229.94;4993670;28;19929;-80
2021/08/19 04:12:37;;;;;;;;;;;18.50;99.90;;;17.43;100.00;100231.59;4993682;28;20016;-90
2021/08/19 04:15:08;;;;;;;;;;;18.50;99.90;;;17.43;100.00;100236.28;5012310;28;20361;-93
2021/08/19 04:17:35;;;;;;;;;;;18.50;99.90;;;17.39;100.00;100235.91;4992572;28;19972;-86
2021/08/19 04:20:04;;;;;;;;;;;18.50;99.90;;;17.34;100.00;100238.50;5011137;28;19955;-86
2021/08/19 04:22:31;;;;;;;;;;;18.50;99.90;;;17.35;100.00;100238.28;5009450;28;20084;-86
2021/08/19 04:24:58;;;;;;;;;;;18.50;99.90;;;17.38;100.00;100240.56;4993443;28;19926;-86
2021/08/19 04:27:25;;;;;;;;;;;18.50;99.90;;;17.38;100.00;100242.47;5011002;28;19999;-85
2021/08/19 04:29:53;;;;;;;;;;;18.50;99.90;;;17.38;100.00;100234.22;5011550;28;19929;-89
2021/08/19 04:32:20;;;;;;;;;;;18.50;99.90;;;17.39;100.00;100230.41;4992788;28;19937;-89
2021/08/19 04:34:47;;;;;;;;;;;18.50;99.90;;;17.40;100.00;100234.81;5007786;23;19929;-63
2021/08/19 04:37:15;;;;;;;;;;;18.50;99.90;;;17.42;100.00;100231.81;4976025;28;19933;-63
2021/08/19 04:39:42;;;;;;;;;;;18.50;99.90;;;17.42;100.00;100238.19;4998320;28;20337;-63
2021/08/19 04:42:09;;;;;;;;;;;18.50;99.90;;;17.40;100.00;100234.81;5003664;28;19929;-62
2021/08/19 04:44:36;;;;;;;;;;;18.50;99.90;;;17.44;100.00;100237.94;4999445;28;19979;-63
2021/08/19 04:47:04;;;;;;;;;;;18.50;99.90;;;17.41;100.00;100239.25;4999111;28;20000;-62
2021/08/19 04:49:31;;;;;;;;;;;18.50;99.90;;;17.42;100.00;100240.09;4985032;28;19972;-62
2021/08/19 04:51:58;;;;;;;;;;;18.50;99.90;;;17.38;100.00;100234.22;4993811;28;20412;-63
2021/08/19 04:54:27;;;;;;;;;;;18.50;99.90;;;17.40;100.00;100234.81;4998818;28;19929;-64
2021/08/19 04:56:54;;;;;;;;;;;18.50;99.90;;;17.37;100.00;100247.13;5000407;28;20314;-62
2021/08/19 04:59:21;;;;;;;;;;;18.50;99.90;;;17.36;100.00;100236.38;5003418;28;20393;-63
2021/08/19 05:01:49;;;;;;;;;;;18.50;99.90;;;17.38;100.00;100234.22;5001970;28;19969;-62
2021/08/19 05:04:16;;;;;;;;;;;18.50;99.90;;;17.39;100.00;100230.41;5002465;28;19979;-63
2021/08/19 05:06:43;;;;;;;;;;;18.50;99.90;;;17.37;100.00;100236.13;4992448;28;19936;-64
2021/08/19 05:09:10;;;;;;;;;;;18.40;99.90;;;17.38;100.00;100239.72;4984712;28;20097;-64
2021/08/19 05:11:38;;;;;;;;;;;18.50;99.90;;;17.36;100.00;100233.63;4997339;28;19964;-63
2021/08/19 05:14:06;;;;;;;;;;;18.50;99.90;;;17.38;100.00;100236.97;4998483;28;19976;-63
2021/08/19 05:16:33;;;;;;;;;;;18.50;99.90;;;17.39;100.00;100244.16;4994965;28;20857;-63
2021/08/19 05:19:00;;;;;;;;;;;18.50;99.90;;;17.37;100.00;100243.56;5002348;28;20410;-64
2021/08/19 05:21:28;;;;;;;;;;;18.50;99.90;;;17.33;100.00;100242.34;5000339;28;19929;-63
2021/08/19 05:23:55;;;;;;;;;;;18.50;99.90;;;17.34;100.00;100252.28;4983080;28;20054;-64
2021/08/19 05:26:22;;;;;;;;;;;18.50;99.90;;;17.33;100.00;100247.84;5000520;28;19930;-64
2021/08/19 05:28:50;;;;;;;;;;;18.50;99.90;;;17.36;100.00;100247.38;4998526;28;20033;-63
2021/08/19 05:31:18;;;;;;;;;;;18.50;99.90;;;17.36;100.00;100250.97;4996036;28;20661;-65
2021/08/19 05:33:45;;;;;;;;;;;18.50;99.90;;;17.35;100.00;100253.97;4996693;28;19979;-65
2021/08/19 05:36:13;;;;;;;;;;;18.40;99.90;;;17.34;100.00;100266.88;4997933;28;20438;-64
2021/08/19 05:38:40;;;;;;;;;;;18.40;99.90;;;17.34;100.00;100261.38;4998101;28;20280;-65
2021/08/19 05:41:07;;;;;;;;;;;18.50;99.90;;;17.34;100.00;100260.53;4983209;28;19988;-64
2021/08/19 05:43:36;;;;;;;;;;;18.40;99.90;;;17.33;100.00;100265.19;4998796;28;20016;-64
2021/08/19 05:46:06;;;;;;;;;;;18.50;99.90;;;17.35;100.00;100267.72;5002617;28;19929;-65
2021/08/19 05:48:33;;;;;;;;;;;18.50;99.90;;;17.32;100.00;100260.75;4997969;28;19976;-64
2021/08/19 05:51:00;;;;;;;;;;;18.50;99.90;;;17.34;100.00;100266.03;5000968;28;20410;-63
2021/08/19 05:53:27;;;;;;;;;;;18.50;99.90;;;17.35;100.00;100262.22;4997594;28;20350;-65
2021/08/19 05:55:54;;;;;;;;;;;18.50;99.90;;;17.36;100.00;100269.38;4995353;28;20537;-65
2021/08/19 05:58:21;;;;;;;;;;;18.50;99.90;;;17.34;100.00;100268.78;5000563;28;20003;-64
2021/08/19 06:00:49;;;;;;;;;;;18.50;99.90;;;17.33;100.00;100269.88;4995165;28;20346;-64
2021/08/19 06:03:19;;;;;;;;;;;18.50;99.90;;;17.34;100.00;100266.03;5000455;28;20362;-64
2021/08/19 06:05:46;;;;;;;;;;;18.50;99.90;;;17.33;100.00;100265.19;5000215;28;19929;-65
2021/08/19 06:08:14;;;;;;;;;;;18.50;99.90;;;17.36;100.00;100267.47;4982625;28;19936;-64
2021/08/19 06:10:41;;;;;;;;;;;18.50;99.90;;;17.38;100.00;100268.09;4995451;28;19933;-65
2021/08/19 06:13:08;;;;;;;;;;;18.50;99.90;;;17.38;100.00;100269.97;5000815;28;20527;-65
2021/08/19 06:15:35;;;;;;;;;;;18.50;99.90;;;17.39;100.00;100268.91;4996565;28;20024;-64
2021/08/19 06:18:02;;;;;;;;;;;18.50;99.90;;;17.42;100.00;100267.59;4980076;28;19934;-64
2021/08/19 06:20:31;;;;;;;;;;;18.50;99.90;;;17.39;100.00;100267.00;4994993;28;19929;-64
2021/08/19 06:22:59;;;;;;;;;;;18.50;99.90;;;17.41;100.00;100272.25;4995802;28;19956;-65
2021/08/19 06:25:26;;;;;;;;;;;18.50;99.90;;;17.40;100.00;100276.06;4999896;28;20289;-64
2021/08/19 06:27:54;;;;;;;;;;;18.50;99.90;;;17.37;100.00;100282.06;4992522;28;19961;-64
2021/08/19 06:30:21;;;;;;;;;;;18.60;99.90;;;17.39;100.00;100274.41;4989910;28;19930;-64
2021/08/19 06:32:48;;;;;;;;;;;18.50;99.90;;;17.40;100.00;100276.06;4995011;28;19930;-64
2021/08/19 06:35:15;;;;;;;;;;;18.60;99.90;;;17.41;100.00;100277.78;4995059;28;20029;-65
2021/08/19 06:37:44;;;;;;;;;;;18.60;99.90;;;17.43;100.00;100286.63;4997462;28;20014;-64
2021/08/19 06:40:11;;;;;;;;;;;18.60;99.90;;;17.42;100.00;100273.97;5001401;28;19929;-65
2021/08/19 06:42:38;;;;;;;;;;;18.60;99.90;;;17.43;100.00;100286.63;5002033;28;19976;-64
2021/08/19 06:45:07;;;;;;;;;;;18.60;99.90;;;17.44;100.00;100282.81;4990441;28;20019;-65
2021/08/19 06:47:34;;;;;;;;;;;18.60;99.90;;;17.40;100.00;100276.06;4995471;28;19969;-64
2021/08/19 06:50:01;;;;;;;;;;;18.60;99.90;;;17.42;100.00;100284.09;4992521;28;19972;-64
2021/08/19 06:52:28;;;;;;;;;;;18.60;99.90;;;17.44;100.00;100279.19;4974652;28;19933;-65
2021/08/19 06:54:58;;;;;;;;;;;18.70;99.90;;;17.46;100.00;100286.16;5006621;28;19926;-64
2021/08/19 06:57:25;;;;;;;;;;;18.70;99.90;;;17.46;100.00;100283.41;5007440;28;20465;-63
2021/08/19 06:59:52;;;;;;;;;;;18.70;99.90;;;17.43;100.00;100289.38;4994441;28;20061;-64
2021/08/19 07:02:19;;;;;;;;;;;18.80;99.90;;;17.44;100.00;100288.31;5007274;28;19945;-63
2021/08/19 07:04:46;;;;;;;;;;;18.80;99.90;;;17.47;100.00;100287.00;5003559;28;20007;-65
2021/08/19 07:07:13;;;;;;;;;;;18.80;99.90;;;17.48;100.00;100284.00;5007084;28;19987;-63
2021/08/19 07:09:40;;;;;;;;;;;18.80;99.90;;;17.48;100.00;100284.00;5005102;28;19995;-64
2021/08/19 07:12:09;;;;;;;;;;;18.80;99.90;;;17.51;100.00;100289.03;4989517;28;19930;-64
2021/08/19 07:14:36;;;;;;;;;;;18.90;99.90;;;17.55;100.00;100289.38;4997404;28;19960;-64
2021/08/19 07:17:04;;;;;;;;;;;18.90;99.90;;;17.56;100.00;100291.91;4990856;28;19929;-64
2021/08/19 07:19:31;;;;;;;;;;;18.90;99.90;;;17.56;100.00;100291.91;4999522;28;20028;-64
2021/08/19 07:21:58;;;;;;;;;;;18.90;99.90;;;17.57;100.00;100288.09;5009643;28;20371;-63
2021/08/19 07:24:25;;;;;;;;;;;18.90;99.90;;;17.58;100.00;100288.94;4997655;28;20025;-65
2021/08/19 07:26:52;;;;;;;;;;;18.90;99.90;;;17.57;100.00;100296.34;4999099;28;19929;-64
2021/08/19 07:29:20;;;;;;;;;;;18.90;99.90;;;17.57;100.00;100293.59;4997771;28;19939;-65
2021/08/19 07:31:48;;;;;;;;;;;18.90;99.90;;;17.59;100.00;100291.44;4993932;28;19926;-65
2021/08/19 07:34:15;;;;;;;;;;;18.90;99.90;;;17.63;100.00;100296.47;5000427;28;19995;-63
2021/08/19 07:36:42;;;;;;;;;;;18.90;99.90;;;17.63;100.00;100301.97;4993096;28;20503;-65
2021/08/19 07:39:09;;;;;;;;;;;18.90;99.90;;;17.64;100.00;100300.91;5006622;28;19992;-64
2021/08/19 07:41:36;;;;;;;;;;;18.90;99.90;;;17.62;100.00;100305.81;5005926;28;19933;-65
2021/08/19 07:44:04;;;;;;;;;;;19.00;99.90;;;17.65;100.00;100299.81;4999813;28;20019;-65
2021/08/19 07:46:34;;;;;;;;;;;19.00;99.90;;;17.68;100.00;100296.59;5000622;28;19980;-64
2021/08/19 07:49:02;;;;;;;;;;;19.10;99.90;;;17.69;100.00;100306.56;4997751;28;20785;-65
2021/08/19 07:51:31;;;;;;;;;;;19.10;99.90;;;17.72;100.00;100311.56;5001684;28;19968;-64
2021/08/19 07:53:58;;;;;;;;;;;19.10;99.90;;;17.72;100.00;100306.06;5009732;28;19929;-64
2021/08/19 07:56:25;;;;;;;;;;;19.10;99.90;;;17.71;100.00;100312.66;4996776;28;20307;-65
2021/08/19 07:58:52;;;;;;;;;;;19.10;99.90;;;17.71;100.00;100312.66;4997882;28;20041;-64
2021/08/19 08:01:19;;;;;;;;;;;19.20;99.90;;;17.73;100.00;100313.25;4994071;28;20539;-65
2021/08/19 08:03:48;;;;;;;;;;;19.20;99.90;;;17.73;100.00;100319.59;5003460;28;20346;-64
2021/08/19 08:06:15;;;;;;;;;;;19.20;99.90;;;17.72;100.00;100315.16;4999682;28;19929;-64
2021/08/19 08:08:42;;;;;;;;;;;19.20;99.60;;;17.74;100.00;100321.28;5007783;28;19936;-64
2021/08/19 08:11:09;;;;;;;;;;;19.20;99.60;;;17.75;100.00;100322.13;4993586;28;19940;-64
2021/08/19 08:13:36;;;;;;;;;;;19.20;99.60;;;17.77;100.00;100326.28;4999176;28;19987;-64
2021/08/19 08:16:04;;;;;;;;;;;19.20;99.60;;;17.75;100.00;100322.94;4992143;28;20021;-64
2021/08/19 08:18:31;;;;;;;;;;;19.20;99.80;;;17.74;100.00;100317.66;4994235;28;19949;-65
2021/08/19 08:21:02;;;;;;;;;;;19.10;99.90;;;17.75;100.00;100324.88;4999783;28;19968;-65
2021/08/19 08:23:32;;;;;;;;;;;19.00;99.90;;;17.73;100.00;100321.50;4997868;28;20400;-63
2021/08/19 08:26:00;;;;;;;;;;;19.00;99.90;;;17.75;100.00;100327.63;4990495;28;20411;-64
2021/08/19 08:28:30;;;;;;;;;;;19.00;99.90;;;17.77;100.00;100328.22;5006407;28;20039;-64
2021/08/19 08:30:58;;;;;;;;;;;19.00;99.90;;;17.77;100.00;100325.47;4998708;28;19933;-64
2021/08/19 08:33:26;;;;;;;;;;;19.00;99.90;;;17.78;100.00;100319.72;4976801;28;19965;-64
2021/08/19 08:35:54;;;;;;;;;;;19.00;99.90;;;17.78;100.00;100325.22;5000917;28;20021;-63
2021/08/19 08:38:24;;;;;;;;;;;19.00;99.90;;;17.79;100.00;100326.06;4990947;28;19965;-64
2021/08/19 08:40:53;;;;;;;;;;;19.00;99.90;;;17.79;100.00;100324.13;5002147;28;20279;-64
2021/08/19 08:43:21;;;;;;;;;;;19.00;99.90;;;17.78;100.00;100332.63;4996699;28;19936;-64
2021/08/19 08:45:50;;;;;;;;;;;19.00;99.90;;;17.74;100.00;100332.28;4997319;28;20008;-64
2021/08/19 08:48:18;;;;;;;;;;;19.00;99.90;;;17.75;100.00;100333.13;4986596;28;20000;-63
2021/08/19 08:50:47;;;;;;;;;;;19.00;99.90;;;17.71;100.00;100337.44;4992244;28;19937;-64
2021/08/19 08:53:15;;;;;;;;;;;19.00;99.90;;;17.72;100.00;100337.16;4974713;28;19938;-63
2021/08/19 08:55:44;;;;;;;;;;;19.00;99.90;;;17.72;100.00;100339.09;4985978;28;19929;-64
2021/08/19 08:58:12;;;;;;;;;;;18.90;99.90;;;17.73;100.00;100341.59;5004786;28;19930;-64
2021/08/19 09:00:41;;;;;;;;;;;18.90;99.90;;;17.71;100.00;100342.94;5000415;28;20024;-64
2021/08/19 09:03:09;;;;;;;;;;;18.90;99.90;;;17.72;100.00;100344.59;4993718;28;19934;-64
2021/08/19 09:05:39;;;;;;;;;;;18.90;99.90;;;17.71;100.00;100342.94;4996026;28;19945;-64
2021/08/19 09:08:07;;;;;;;;;;;18.90;99.90;;;17.69;100.00;100345.09;4994703;28;19929;-64
2021/08/19 09:10:35;;;;;;;;;;;18.90;99.90;;;17.68;100.00;100348.91;4999587;28;20375;-64
2021/08/19 09:13:08;;;;;;;;;;;18.80;99.90;;;17.69;100.00;100345.09;4997874;28;19937;-64
2021/08/19 09:15:35;;;;;;;;;;;18.90;99.90;;;17.67;100.00;100353.56;5003214;28;19942;-63
2021/08/19 09:18:03;;;;;;;;;;;18.90;99.90;;;17.66;100.00;100348.28;4984236;28;19930;-64
2021/08/19 09:20:34;;;;;;;;;;;18.90;99.90;;;17.66;100.00;100351.03;5006676;28;19936;-64
2021/08/19 09:23:03;;;;;;;;;;;18.90;99.90;;;17.65;100.00;100344.72;4997778;28;19945;-64
2021/08/19 09:25:32;;;;;;;;;;;18.90;99.90;;;17.66;100.00;100342.78;4992971;28;19969;-63
2021/08/19 09:28:15;;;;;;;;;;;18.90;99.90;;;17.67;100.00;100348.06;4990784;28;19930;-63
2021/08/19 09:30:44;;;;;;;;;;;18.90;99.90;;;17.69;100.00;100356.09;4990839;28;20482;-63
2021/08/19 09:33:18;;;;;;;;;;;19.00;99.90;;;17.71;100.00;100351.19;5000665;28;19930;-65
2021/08/19 09:35:47;;;;;;;;;;;19.00;99.90;;;17.71;100.00;100356.69;4994634;28;19936;-62
2021/08/19 09:38:16;;;;;;;;;;;19.00;99.90;;;17.71;100.00;100351.19;4994855;28;19983;-63
2021/08/19 09:40:43;;;;;;;;;;;19.00;99.90;;;17.72;100.00;100352.84;5004513;28;19991;-64
2021/08/19 09:43:14;;;;;;;;;;;19.00;99.90;;;17.73;100.00;100351.78;5000013;28;22237;-64
2021/08/19 09:45:53;;;;;;;;;;;19.00;99.90;;;17.72;100.00;100350.09;4997378;28;19961;-65
2021/08/19 09:48:21;;;;;;;;;;;19.00;99.90;;;17.71;100.00;100359.44;4993317;28;20044;-64
2021/08/19 09:50:48;;;;;;;;;;;19.00;99.90;;;17.73;100.00;100346.28;5001402;28;19934;-65
2021/08/19 09:53:18;;;;;;;;;;;19.00;99.90;;;17.71;100.00;100356.69;5000723;28;19933;-64
2021/08/19 09:55:45;;;;;;;;;;;19.00;99.90;;;17.72;100.00;100353.69;4998365;28;19930;-66
2021/08/19 09:58:29;;;;;;;;;;;19.00;99.90;;;17.74;100.00;100358.97;4995487;28;19980;-66
2021/08/19 10:00:56;;;;;;;;;;;19.00;99.90;;;17.71;100.00;100353.94;5002950;28;19980;-62
2021/08/19 10:03:24;;;;;;;;;;;19.10;99.90;;;17.72;100.00;100348.19;4993523;28;20024;-62
2021/08/19 10:05:51;;;;;;;;;;;19.10;99.90;;;17.75;100.00;100353.22;4999080;28;20379;-63
2021/08/19 10:08:18;;;;;;;;;;;19.20;99.90;;;17.75;100.00;100352.38;5000899;28;19953;-63
2021/08/19 10:10:46;;;;;;;;;;;19.30;99.90;;;17.75;100.00;100344.97;4991948;28;20345;-62
2021/08/19 10:13:16;;;;;;;;;;;19.30;99.90;;;17.81;100.00;100345.94;4995187;28;19957;-63
2021/08/19 10:15:47;;;;;;;;;;;19.50;99.90;;;17.84;100.00;100347.38;5001601;28;19975;-64
2021/08/19 10:18:18;;;;;;;;;;;19.60;99.90;;;17.90;100.00;100347.31;5004758;28;20040;-62
2021/08/19 10:20:47;;;;;;;;;;;19.70;99.90;;;17.94;100.00;100344.91;4997034;28;19925;-63
2021/08/19 10:23:15;;;;;;;;;;;19.80;99.90;;;17.96;100.00;100349.09;4994808;28;20052;-62
2021/08/19 10:25:42;;;;;;;;;;;19.90;99.90;;;18.02;100.00;100344.56;4997699;28;19929;-62
2021/08/19 10:28:16;;;;;;;;;;;20.00;99.90;;;18.07;100.00;100344.69;4993646;28;19930;-63
2021/08/19 10:30:51;;;;;;;;;;;20.10;99.40;;;18.14;100.00;100344.56;4993099;28;19961;-63
2021/08/19 10:33:44;;;;;;;;;;;20.30;99.90;;;18.16;100.00;100343.25;4990428;28;19925;-63
2021/08/19 10:36:52;;;;;;;;;;;20.40;99.00;;;18.23;100.00;100339.53;5004092;28;19929;-62
2021/08/19 10:39:41;;;;;;;;;;;20.60;98.30;;;18.27;100.00;100336.06;4989220;28;19980;-64
2021/08/19 10:42:12;;;;;;;;;;;20.70;97.50;;;18.31;100.00;100340.00;4999218;28;20016;-63
2021/08/19 10:44:45;;;;;;;;;;;20.80;97.10;;;18.33;100.00;100335.13;4996538;28;20007;-63
2021/08/19 10:47:34;;;;;;;;;;;20.80;96.70;;;18.36;100.00;100333.78;4990986;28;19934;-63
2021/08/19 10:50:23;;;;;;;;;;;20.80;96.50;;;18.39;100.00;100337.97;4985551;28;19929;-62
2021/08/19 10:52:50;;;;;;;;;;;20.70;96.70;;;18.38;100.00;100341.81;4999449;28;19935;-63
2021/08/19 10:55:19;;;;;;;;;;;20.70;96.90;;;18.41;100.00;100341.31;4990563;28;19925;-63
2021/08/19 10:57:58;;;;;;;;;;;20.60;96.90;;;18.41;100.00;100341.31;4991821;28;19929;-63
2021/08/19 11:00:42;;;;;;;;;;;20.70;96.70;;;18.41;100.00;100342.19;4989057;28;19929;-63
2021/08/19 11:03:30;;;;;;;;;;;20.70;96.60;;;18.44;100.00;100340.84;4995198;28;19938;-62
2021/08/19 11:05:57;;;;;;;;;;;20.80;96.10;;;18.48;100.00;100337.34;5004546;28;19929;-63
2021/08/19 11:08:38;;;;;;;;;;;20.80;96.00;;;18.52;100.00;100344.09;5005564;28;20040;-64